Time;durP1;ratioP1;P1;durP2;ratioP2;P2;SDS_P1;SDS_P2;PMS_P1;PMS_P2;Temp;Humidity;BMP_temperature;BMP_pressure;BME280_temperature;BME280_humidity;BME280_pressure;Samples;Min_cycle;Max_cycle;Signal;HPM_P1;HPM_P2
2021/10/15 00:00:34;;;;;;;10.50;4.43;;;9.90;85.20;;;;;;10125660;28;20274;-55
2021/10/15 00:05:25;;;;;;;6.80;4.05;;;9.90;85.10;;;;;;10121737;28;20025;-55
2021/10/15 00:10:15;;;;;;;7.45;4.57;;;9.80;85.40;;;;;;10117792;28;20032;-54
2021/10/15 00:15:06;;;;;;;4.63;3.47;;;9.80;85.50;;;;;;10122081;28;20051;-59
2021/10/15 00:19:57;;;;;;;6.22;3.72;;;9.70;85.60;;;;;;10109461;28;20478;-56
2021/10/15 00:24:48;;;;;;;5.90;3.50;;;9.70;85.80;;;;;;10126147;28;20029;-55
2021/10/15 00:29:38;;;;;;;7.38;4.40;;;9.60;85.90;;;;;;10114400;28;20029;-54
2021/10/15 00:34:29;;;;;;;5.75;4.30;;;9.60;86.20;;;;;;10115980;28;20095;-53
2021/10/15 00:39:20;;;;;;;4.82;3.25;;;9.50;86.40;;;;;;10124367;28;20025;-55
2021/10/15 00:44:12;;;;;;;10.23;4.50;;;9.50;86.50;;;;;;10117973;28;20464;-52
2021/10/15 00:49:09;;;;;;;6.53;3.72;;;9.50;86.50;;;;;;10116545;28;20039;-53
2021/10/15 00:54:01;;;;;;;8.10;3.78;;;9.40;86.40;;;;;;10114074;28;20371;-59
2021/10/15 00:58:52;;;;;;;5.75;3.60;;;9.50;86.40;;;;;;10120036;28;20044;-66
2021/10/15 01:03:43;;;;;;;7.38;4.22;;;9.50;86.30;;;;;;10106745;28;20131;-59
2021/10/15 01:08:42;;;;;;;8.90;4.03;;;9.40;86.70;;;;;;10108421;28;21280;-58
2021/10/15 01:13:33;;;;;;;6.50;4.03;;;9.30;87.00;;;;;;10086717;28;20043;-59
2021/10/15 01:18:24;;;;;;;5.30;3.42;;;9.30;87.00;;;;;;10115867;28;20036;-61
2021/10/15 01:23:15;;;;;;;4.20;3.22;;;9.20;87.40;;;;;;10114906;28;20041;-56
2021/10/15 01:28:05;;;;;;;4.57;2.88;;;9.20;87.40;;;;;;10114423;28;20424;-55
2021/10/15 01:32:56;;;;;;;7.07;3.47;;;9.20;87.40;;;;;;10103107;28;20499;-59
2021/10/15 01:37:46;;;;;;;5.00;2.90;;;9.10;87.60;;;;;;10114629;28;20037;-59
2021/10/15 01:42:53;;;;;;;3.65;2.78;;;9.10;87.60;;;;;;10110339;28;20037;-57
2021/10/15 01:47:44;;;;;;;6.10;2.50;;;9.00;87.60;;;;;;10117186;28;20031;-63
2021/10/15 01:52:35;;;;;;;5.90;3.80;;;9.00;87.70;;;;;;10113046;28;20128;-63
2021/10/15 01:57:26;;;;;;;5.65;3.47;;;8.90;87.80;;;;;;10103044;28;20505;-63
2021/10/15 02:02:16;;;;;;;4.25;2.95;;;8.90;87.80;;;;;;10120043;28;20029;-65
2021/10/15 02:07:07;;;;;;;4.97;3.30;;;8.80;87.90;;;;;;10123742;28;20094;-58
2021/10/15 02:12:02;;;;;;;4.25;3.05;;;8.80;87.90;;;;;;10117399;28;20259;-59
2021/10/15 02:16:53;;;;;;;7.33;3.27;;;8.80;87.70;;;;;;10111483;28;20047;-63
2021/10/15 02:21:43;;;;;;;5.63;3.55;;;8.80;88.00;;;;;;10122222;28;20389;-65
2021/10/15 02:26:34;;;;;;;5.30;4.05;;;8.80;88.10;;;;;;10122415;28;20032;-64
2021/10/15 02:31:25;;;;;;;5.43;4.00;;;8.70;88.20;;;;;;10117469;28;20447;-59
2021/10/15 02:36:15;;;;;;;6.50;4.07;;;8.60;88.10;;;;;;10128283;28;20048;-64
2021/10/15 02:41:06;;;;;;;6.55;3.40;;;8.50;88.10;;;;;;10127511;28;20029;-53
2021/10/15 02:45:57;;;;;;;5.93;3.47;;;8.60;88.20;;;;;;10099148;28;20517;-57
2021/10/15 02:50:47;;;;;;;7.80;3.42;;;8.40;88.30;;;;;;10121031;28;20093;-62
2021/10/15 02:55:38;;;;;;;6.68;3.65;;;8.40;88.60;;;;;;10118075;28;20037;-65
2021/10/15 03:00:28;;;;;;;5.72;3.85;;;8.50;88.20;;;;;;10127574;28;20131;-64
2021/10/15 03:05:19;;;;;;;7.20;3.58;;;8.40;88.40;;;;;;10127521;28;20052;-54
2021/10/15 03:10:10;;;;;;;5.45;3.67;;;8.40;88.60;;;;;;10132531;28;20139;-57
2021/10/15 03:15:01;;;;;;;4.78;3.03;;;8.40;88.50;;;;;;10117196;28;20043;-61
2021/10/15 03:19:51;;;;;;;7.90;4.95;;;8.30;88.40;;;;;;10118512;28;20100;-51
2021/10/15 03:24:42;;;;;;;6.57;3.78;;;8.40;88.60;;;;;;10123672;28;20411;-53
2021/10/15 03:29:33;;;;;;;5.35;3.42;;;8.40;88.60;;;;;;10119374;28;20434;-55
2021/10/15 03:34:23;;;;;;;5.60;3.15;;;8.30;88.60;;;;;;10103179;28;20163;-57
2021/10/15 03:39:14;;;;;;;4.95;3.47;;;8.30;88.80;;;;;;10123098;28;20023;-57
2021/10/15 03:44:05;;;;;;;6.25;3.65;;;8.30;88.70;;;;;;10125822;28;20035;-52
2021/10/15 03:48:58;;;;;;;6.90;3.65;;;8.20;88.80;;;;;;10122633;28;20025;-62
2021/10/15 03:53:48;;;;;;;5.22;3.80;;;8.20;88.80;;;;;;10114024;28;20029;-53
2021/10/15 03:58:39;;;;;;;7.28;3.83;;;8.20;88.90;;;;;;10112294;28;20035;-53
2021/10/15 04:03:30;;;;;;;7.00;4.63;;;8.10;89.00;;;;;;10121956;28;20423;-51
2021/10/15 04:08:20;;;;;;;6.70;3.53;;;8.10;89.10;;;;;;10124451;28;20039;-54
2021/10/15 04:13:11;;;;;;;8.98;3.72;;;8.10;89.10;;;;;;10125547;28;20061;-55
2021/10/15 04:18:02;;;;;;;6.13;3.63;;;8.00;89.20;;;;;;10125087;28;20474;-56
2021/10/15 04:22:52;;;;;;;6.82;3.92;;;8.10;89.60;;;;;;10109951;28;20183;-55
2021/10/15 04:27:43;;;;;;;8.02;3.92;;;8.10;89.30;;;;;;10123737;28;20081;-55
2021/10/15 04:32:34;;;;;;;8.13;4.13;;;8.10;89.30;;;;;;10123076;28;20550;-53
2021/10/15 04:37:24;;;;;;;7.13;3.97;;;8.10;89.40;;;;;;10113609;28;20549;-57
2021/10/15 04:42:15;;;;;;;5.07;3.60;;;8.20;89.30;;;;;;10114296;28;20029;-60
2021/10/15 04:47:06;;;;;;;8.30;4.10;;;8.20;89.40;;;;;;10123350;28;20032;-55
2021/10/15 04:51:56;;;;;;;5.70;3.22;;;8.30;89.40;;;;;;10112021;28;20025;-54
2021/10/15 04:56:47;;;;;;;7.05;4.20;;;8.10;89.60;;;;;;10118510;28;20158;-54
2021/10/15 05:01:37;;;;;;;8.13;4.90;;;8.10;89.80;;;;;;10125402;28;20089;-53
2021/10/15 05:06:28;;;;;;;7.97;4.22;;;8.10;89.80;;;;;;10121490;28;20028;-55
2021/10/15 05:11:19;;;;;;;8.73;3.92;;;8.00;89.90;;;;;;10126103;28;20024;-51
2021/10/15 05:16:10;;;;;;;8.63;3.63;;;8.10;89.80;;;;;;10119017;28;20032;-51
2021/10/15 05:21:01;;;;;;;5.57;3.30;;;8.10;89.70;;;;;;10109004;28;20024;-54
2021/10/15 05:25:52;;;;;;;5.82;3.35;;;8.00;89.90;;;;;;10117525;28;20028;-56
2021/10/15 05:30:42;;;;;;;5.75;3.22;;;8.00;90.00;;;;;;10118935;28;20379;-54
2021/10/15 05:35:33;;;;;;;10.13;4.10;;;8.00;90.00;;;;;;10120590;28;20098;-56
2021/10/15 05:40:24;;;;;;;7.35;3.72;;;8.00;90.00;;;;;;10119854;28;20017;-52
2021/10/15 05:45:15;;;;;;;4.38;2.92;;;8.00;89.90;;;;;;10121018;28;20491;-55
2021/10/15 05:50:08;;;;;;;6.18;3.80;;;8.00;89.80;;;;;;10120383;28;20025;-53
2021/10/15 05:59:49;;;;;;;7.45;3.05;;;7.90;90.10;;;;;;10120867;28;20486;-56
2021/10/15 06:14:40;;;;;;;5.00;3.03;;;7.90;90.00;;;;;;10115127;28;20449;-60
2021/10/15 06:19:47;;;;;;;5.43;3.40;;;8.00;89.80;;;;;;10122377;28;20063;-58
2021/10/15 06:24:37;;;;;;;6.55;3.90;;;7.90;90.00;;;;;;10121191;28;20044;-57
2021/10/15 06:29:28;;;;;;;5.22;3.40;;;8.00;90.00;;;;;;10111846;28;20024;-56
2021/10/15 06:34:19;;;;;;;7.53;3.97;;;7.90;90.00;;;;;;10122097;28;20598;-59
2021/10/15 06:39:09;;;;;;;4.95;3.20;;;8.00;90.00;;;;;;10129157;28;20032;-66
2021/10/15 06:44:00;;;;;;;5.88;3.63;;;8.00;90.00;;;;;;10118799;28;20032;-60
2021/10/15 06:48:51;;;;;;;5.13;3.22;;;8.20;89.90;;;;;;10116936;28;20032;-59
2021/10/15 06:53:41;;;;;;;6.38;3.40;;;8.20;89.70;;;;;;10114606;28;20425;-56
2021/10/15 06:58:34;;;;;;;5.93;3.70;;;8.30;89.80;;;;;;10125717;28;20024;-56
2021/10/15 07:03:25;;;;;;;4.80;3.28;;;8.30;89.60;;;;;;10113593;28;20059;-57
2021/10/15 07:08:15;;;;;;;7.03;3.38;;;8.50;89.60;;;;;;10118787;28;20032;-55
2021/10/15 07:13:06;;;;;;;4.65;3.00;;;8.50;89.50;;;;;;10110325;28;20029;-60
2021/10/15 07:17:57;;;;;;;5.70;3.55;;;8.60;89.30;;;;;;10119688;28;20263;-58
2021/10/15 07:22:48;;;;;;;6.22;3.95;;;8.50;89.30;;;;;;10122363;28;20051;-57
2021/10/15 07:27:40;;;;;;;6.80;3.67;;;8.50;89.30;;;;;;10124945;28;20572;-60
2021/10/15 07:32:32;;;;;;;6.13;3.83;;;8.60;89.30;;;;;;10114491;28;20045;-55
2021/10/15 07:37:25;;;;;;;6.68;3.83;;;8.60;89.30;;;;;;10117367;28;20049;-53
2021/10/15 07:42:15;;;;;;;5.68;3.90;;;8.70;89.10;;;;;;10107247;28;20063;-53
2021/10/15 07:47:06;;;;;;;6.00;2.90;;;8.90;88.80;;;;;;10113561;28;20697;-56
2021/10/15 07:51:57;;;;;;;5.22;3.35;;;9.00;89.20;;;;;;10111899;28;20124;-55
2021/10/15 07:56:48;;;;;;;8.95;4.25;;;9.10;88.50;;;;;;10125627;28;20119;-58
2021/10/15 08:01:38;;;;;;;5.60;3.08;;;9.30;88.30;;;;;;10113013;28;20035;-62
2021/10/15 08:06:29;;;;;;;7.63;4.00;;;9.50;87.90;;;;;;10124274;28;20025;-54
2021/10/15 08:11:20;;;;;;;7.47;4.22;;;9.50;88.00;;;;;;10127146;28;20115;-58
2021/10/15 08:16:11;;;;;;;7.82;3.85;;;9.50;87.80;;;;;;10116667;28;20135;-59
2021/10/15 08:21:02;;;;;;;9.30;4.28;;;9.70;87.70;;;;;;10121086;28;20490;-58
2021/10/15 08:25:57;;;;;;;6.88;3.63;;;9.80;87.60;;;;;;10118410;28;20025;-57
2021/10/15 08:30:48;;;;;;;7.87;3.83;;;10.00;87.50;;;;;;10107687;28;20040;-58
2021/10/15 08:35:38;;;;;;;5.60;3.47;;;10.20;87.00;;;;;;10116371;28;20423;-63
2021/10/15 08:40:29;;;;;;;5.80;4.07;;;10.10;87.10;;;;;;10125225;28;20039;-60
2021/10/15 08:45:25;;;;;;;7.50;4.45;;;10.20;87.10;;;;;;10114714;28;20033;-59
2021/10/15 08:50:16;;;;;;;6.03;4.40;;;10.20;86.90;;;;;;10104708;28;20031;-61
2021/10/15 08:55:07;;;;;;;6.43;3.63;;;10.40;86.70;;;;;;10123407;28;20024;-61
2021/10/15 08:59:57;;;;;;;6.45;3.47;;;10.50;86.40;;;;;;10119973;28;20494;-52
2021/10/15 09:04:54;;;;;;;5.15;3.53;;;10.70;86.30;;;;;;10113946;28;20025;-59
2021/10/15 09:09:46;;;;;;;7.43;4.22;;;10.90;85.90;;;;;;10105736;28;20024;-56
2021/10/15 09:14:38;;;;;;;7.63;3.95;;;11.00;86.00;;;;;;10096486;28;20132;-60
2021/10/15 09:19:48;;;;;;;4.88;3.28;;;11.10;86.00;;;;;;10115170;28;20016;-61
2021/10/15 09:24:48;;;;;;;5.40;2.83;;;11.20;85.80;;;;;;10118050;28;20035;-58
2021/10/15 09:29:41;;;;;;;6.53;3.38;;;11.40;85.60;;;;;;10089362;28;20078;-58
2021/10/15 09:34:33;;;;;;;5.15;3.40;;;11.60;85.10;;;;;;10115946;28;20052;-55
2021/10/15 09:39:28;;;;;;;4.00;2.88;;;11.70;85.10;;;;;;10118305;28;20032;-58
2021/10/15 09:44:33;;;;;;;4.20;2.65;;;11.70;85.20;;;;;;10121876;28;20035;-64
2021/10/15 09:49:46;;;;;;;5.15;3.38;;;11.90;85.10;;;;;;10110079;28;20311;-58
2021/10/15 09:54:38;;;;;;;4.88;3.08;;;11.90;84.80;;;;;;10109761;28;20083;-59
2021/10/15 09:59:42;;;;;;;4.82;2.85;;;12.10;84.70;;;;;;10122371;28;20124;-57
2021/10/15 10:04:32;;;;;;;6.38;3.30;;;12.30;84.30;;;;;;10111225;28;20028;-63
2021/10/15 10:09:24;;;;;;;3.60;2.92;;;12.60;84.10;;;;;;10116244;28;20067;-61
2021/10/15 10:14:18;;;;;;;6.47;4.05;;;12.90;83.70;;;;;;10100653;28;20040;-60
2021/10/15 10:19:09;;;;;;;6.38;3.90;;;12.90;83.40;;;;;;10093016;28;20028;-62
2021/10/15 10:24:12;;;;;;;8.90;3.30;;;13.00;83.70;;;;;;10110619;28;20033;-57
2021/10/15 10:29:05;;;;;;;6.18;4.07;;;13.30;83.20;;;;;;10101495;28;20036;-61
2021/10/15 10:34:02;;;;;;;7.60;4.65;;;13.70;82.90;;;;;;10120128;28;20564;-60
2021/10/15 10:38:53;;;;;;;5.30;3.50;;;13.80;82.60;;;;;;10114081;28;20079;-57
2021/10/15 10:43:43;;;;;;;7.88;3.72;;;13.90;82.50;;;;;;10125193;28;20047;-64
2021/10/15 10:48:49;;;;;;;7.63;3.38;;;14.10;82.20;;;;;;10122805;28;20032;-56
2021/10/15 10:54:03;;;;;;;7.50;3.90;;;14.20;81.80;;;;;;10122357;28;20080;-61
2021/10/15 10:58:54;;;;;;;6.85;4.22;;;14.30;81.40;;;;;;10081047;28;20135;-54
2021/10/15 11:03:45;;;;;;;6.22;3.42;;;14.40;81.40;;;;;;10128213;28;20099;-61
2021/10/15 11:08:36;;;;;;;8.50;4.63;;;14.40;81.20;;;;;;10119367;28;20047;-56
2021/10/15 11:13:33;;;;;;;6.13;3.63;;;14.60;80.90;;;;;;10124287;28;20032;-56
2021/10/15 11:18:24;;;;;;;5.85;3.92;;;14.40;80.60;;;;;;10092340;28;20075;-59
2021/10/15 11:23:15;;;;;;;6.95;3.47;;;14.50;80.40;;;;;;10126125;28;20303;-56
2021/10/15 11:28:11;;;;;;;9.73;3.33;;;14.60;80.00;;;;;;10105789;28;20031;-60
2021/10/15 11:33:06;;;;;;;11.40;4.35;;;14.40;79.80;;;;;;10119963;28;20523;-59
2021/10/15 11:38:07;;;;;;;14.07;5.22;;;14.30;79.60;;;;;;10119922;28;20727;-53
2021/10/15 11:43:22;;;;;;;7.22;3.38;;;14.50;79.10;;;;;;10123287;28;20257;-59
2021/10/15 11:48:24;;;;;;;4.68;3.50;;;14.80;78.30;;;;;;10091736;28;20036;-52
2021/10/15 11:53:21;;;;;;;9.60;3.75;;;15.30;77.80;;;;;;10108849;28;20029;-62
2021/10/15 11:58:35;;;;;;;7.15;4.47;;;15.60;77.20;;;;;;10117471;28;20094;-62
2021/10/15 12:03:52;;;;;;;5.00;3.58;;;15.60;77.20;;;;;;10119093;28;20029;-53
2021/10/15 12:08:44;;;;;;;6.43;3.60;;;15.60;77.00;;;;;;10120355;28;20017;-56
2021/10/15 12:13:35;;;;;;;8.32;4.15;;;15.60;76.90;;;;;;10111038;28;20064;-54
2021/10/15 12:18:31;;;;;;;5.93;3.95;;;15.80;76.60;;;;;;10123052;28;20067;-57
2021/10/15 12:23:22;;;;;;;5.38;3.35;;;16.10;76.00;;;;;;10109204;28;20025;-58
2021/10/15 12:28:14;;;;;;;10.15;5.20;;;16.00;75.50;;;;;;10104247;28;20020;-63
2021/10/15 12:33:09;;;;;;;6.15;3.63;;;15.80;75.90;;;;;;10113276;28;20044;-54
2021/10/15 12:38:00;;;;;;;6.32;3.13;;;16.00;75.50;;;;;;10115834;28;20491;-62
2021/10/15 12:43:03;;;;;;;5.45;3.67;;;16.40;75.40;;;;;;10091177;28;20025;-59
2021/10/15 12:48:08;;;;;;;6.95;4.85;;;16.70;74.10;;;;;;10112101;28;20033;-58
2021/10/15 12:53:14;;;;;;;7.60;4.20;;;17.00;73.80;;;;;;10109960;28;20036;-54
2021/10/15 12:58:06;;;;;;;8.07;3.72;;;17.30;73.60;;;;;;10110498;28;20502;-52
2021/10/15 13:03:03;;;;;;;6.22;4.03;;;17.60;73.60;;;;;;10103972;28;20443;-55
2021/10/15 13:07:54;;;;;;;4.07;3.30;;;17.80;73.70;;;;;;10110540;28;20438;-54
2021/10/15 13:12:46;;;;;;;7.35;5.38;;;17.80;73.60;;;;;;10117469;28;20078;-60
2021/10/15 13:17:37;;;;;;;6.50;4.15;;;17.90;73.20;;;;;;10122409;28;20037;-59
2021/10/15 13:22:29;;;;;;;6.18;3.45;;;18.10;73.20;;;;;;10125096;28;20028;-64
2021/10/15 13:27:19;;;;;;;7.05;3.70;;;18.10;72.70;;;;;;10118343;28;20028;-60
2021/10/15 13:32:10;;;;;;;7.63;3.53;;;18.10;72.40;;;;;;10100222;28;20505;-58
2021/10/15 13:37:08;;;;;;;6.38;3.67;;;18.30;72.10;;;;;;10118593;28;20502;-58
2021/10/15 13:52:00;;;;;;;5.88;3.95;;;19.10;70.30;;;;;;10114528;28;20055;-55
2021/10/15 13:56:51;;;;;;;4.32;3.10;;;20.10;69.10;;;;;;10107919;28;20581;-64
2021/10/15 14:01:52;;;;;;;4.57;3.22;;;21.10;67.30;;;;;;10126003;28;20055;-58
2021/10/15 14:06:43;;;;;;;5.45;3.05;;;21.40;66.00;;;;;;10112965;28;20072;-56
2021/10/15 14:11:35;;;;;;;5.05;2.90;;;23.10;64.00;;;;;;10119815;28;20028;-57
2021/10/15 14:16:26;;;;;;;5.95;3.97;;;24.30;60.90;;;;;;10131920;28;20402;-59
2021/10/15 14:21:17;;;;;;;5.63;2.90;;;24.30;59.40;;;;;;10124358;28;20414;-55
2021/10/15 14:26:08;;;;;;;8.05;4.47;;;23.80;59.00;;;;;;10111111;28;20029;-60
2021/10/15 14:31:00;;;;;;;6.32;4.57;;;22.60;59.80;;;;;;10128841;28;20107;-56
2021/10/15 14:35:51;;;;;;;5.00;3.67;;;22.80;59.10;;;;;;10126956;28;20101;-60
2021/10/15 14:40:45;;;;;;;5.15;3.80;;;22.80;57.60;;;;;;10112032;28;20036;-57
2021/10/15 14:45:37;;;;;;;4.40;3.22;;;22.30;58.10;;;;;;10124286;28;20024;-52
2021/10/15 14:50:27;;;;;;;7.25;3.72;;;21.30;59.40;;;;;;10122508;28;20064;-59
2021/10/15 14:55:18;;;;;;;5.90;3.00;;;20.30;60.80;;;;;;10106741;28;20056;-57
2021/10/15 15:00:09;;;;;;;5.10;3.22;;;19.30;62.00;;;;;;10125582;28;20078;-60
2021/10/15 15:05:00;;;;;;;6.30;3.80;;;18.50;63.30;;;;;;10125960;28;20028;-63
2021/10/15 15:09:50;;;;;;;5.50;2.75;;;18.00;63.80;;;;;;10100561;28;20027;-56
2021/10/15 15:14:41;;;;;;;6.35;3.28;;;17.50;64.20;;;;;;10104340;28;20043;-59
2021/10/15 15:19:32;;;;;;;8.02;4.28;;;17.30;64.60;;;;;;10121647;28;20027;-61
2021/10/15 15:24:23;;;;;;;4.85;3.30;;;17.10;64.90;;;;;;10114347;28;20051;-53
2021/10/15 15:29:16;;;;;;;5.35;2.95;;;17.00;65.00;;;;;;10126261;28;20033;-55
2021/10/15 15:34:07;;;;;;;6.63;3.78;;;16.90;65.40;;;;;;10111309;28;20079;-56
2021/10/15 15:38:57;;;;;;;5.00;3.33;;;16.80;65.50;;;;;;10121097;28;20101;-56
2021/10/15 15:43:48;;;;;;;5.68;3.53;;;16.80;65.80;;;;;;10108650;28;20025;-54
2021/10/15 15:48:39;;;;;;;6.38;3.60;;;16.70;66.00;;;;;;10121453;28;20025;-55
2021/10/15 15:53:31;;;;;;;4.72;3.38;;;16.60;66.10;;;;;;10108231;28;20132;-54
2021/10/15 15:58:23;;;;;;;6.25;3.17;;;16.50;66.40;;;;;;10083965;28;20466;-54
2021/10/15 16:03:14;;;;;;;7.65;3.30;;;16.40;66.80;;;;;;10122710;28;20048;-57
2021/10/15 16:08:05;;;;;;;4.38;3.33;;;16.20;67.10;;;;;;10079482;28;20029;-58
2021/10/15 16:12:56;;;;;;;9.10;3.80;;;16.10;67.60;;;;;;10092663;28;20411;-52
2021/10/15 16:17:47;;;;;;;4.82;3.25;;;15.90;68.10;;;;;;10106257;28;20302;-53
2021/10/15 16:22:38;;;;;;;5.85;3.83;;;15.70;68.50;;;;;;10105560;28;20568;-56
2021/10/15 16:27:28;;;;;;;5.22;3.17;;;15.50;68.90;;;;;;10110147;28;20037;-60
2021/10/15 16:32:19;;;;;;;7.65;3.85;;;15.30;69.40;;;;;;10119664;28;20044;-54
2021/10/15 16:37:10;;;;;;;9.93;3.70;;;15.20;70.40;;;;;;10117841;28;20128;-54
2021/10/15 16:42:01;;;;;;;6.03;3.78;;;15.00;70.10;;;;;;10116911;28;20088;-52
2021/10/15 16:46:52;;;;;;;7.10;3.35;;;14.90;70.50;;;;;;10103565;28;20032;-57
2021/10/15 16:51:43;;;;;;;6.55;3.30;;;14.80;70.80;;;;;;10117275;28;20029;-58
2021/10/15 16:56:33;;;;;;;6.55;4.35;;;14.70;70.80;;;;;;10103282;28;20041;-56
2021/10/15 17:01:24;;;;;;;6.68;4.35;;;14.60;71.20;;;;;;10122450;28;20020;-53
2021/10/15 17:06:14;;;;;;;10.13;4.68;;;14.50;71.60;;;;;;10124166;28;21054;-57
2021/10/15 17:11:06;;;;;;;8.70;4.97;;;14.50;71.90;;;;;;10122687;28;20459;-59
2021/10/15 17:15:57;;;;;;;10.10;4.65;;;14.40;72.20;;;;;;10100230;28;20063;-56
2021/10/15 17:20:47;;;;;;;10.93;5.35;;;14.30;72.60;;;;;;10107152;28;20478;-59
2021/10/15 17:25:38;;;;;;;11.98;4.70;;;14.20;73.00;;;;;;10122405;28;20094;-61
2021/10/15 17:30:29;;;;;;;10.63;5.43;;;14.20;73.20;;;;;;10117868;28;20353;-56
2021/10/15 17:35:20;;;;;;;17.52;7.68;;;14.10;73.60;;;;;;10106413;28;20519;-55
2021/10/15 17:40:12;;;;;;;20.85;9.82;;;14.10;73.90;;;;;;10115543;28;20419;-58
2021/10/15 17:45:04;;;;;;;16.83;9.02;;;14.00;74.10;;;;;;10110772;28;20021;-59
2021/10/15 17:49:55;;;;;;;12.65;7.25;;;13.90;74.50;;;;;;10120275;28;20145;-56
2021/10/15 17:54:46;;;;;;;14.52;7.25;;;13.90;75.00;;;;;;10118648;28;20040;-51
2021/10/15 17:59:36;;;;;;;17.42;6.55;;;13.80;75.30;;;;;;10116512;28;20029;-60
2021/10/15 18:04:27;;;;;;;13.18;6.55;;;13.80;75.60;;;;;;10103567;28;20025;-54
2021/10/15 18:09:18;;;;;;;11.05;6.32;;;13.70;75.90;;;;;;10101796;28;20120;-54
2021/10/15 18:14:08;;;;;;;13.73;6.35;;;13.70;76.20;;;;;;10117869;28;20024;-54
2021/10/15 18:18:59;;;;;;;12.55;5.60;;;13.60;76.50;;;;;;10110419;28;20480;-53
2021/10/15 18:23:50;;;;;;;12.02;7.22;;;13.60;76.90;;;;;;10114937;28;20025;-53
2021/10/15 18:28:42;;;;;;;12.60;7.00;;;13.60;77.20;;;;;;10112378;28;20086;-54
2021/10/15 18:33:32;;;;;;;14.52;7.25;;;13.60;77.20;;;;;;10116148;28;20051;-61
2021/10/15 18:38:23;;;;;;;12.75;7.78;;;13.60;77.40;;;;;;10103979;28;20123;-65
2021/10/15 18:43:14;;;;;;;15.57;8.38;;;13.50;77.70;;;;;;10083923;28;20017;-58
2021/10/15 18:48:04;;;;;;;15.25;7.90;;;13.50;78.00;;;;;;10093236;28;20116;-57
2021/10/15 18:52:55;;;;;;;18.92;8.30;;;13.40;78.10;;;;;;10120121;28;20071;-60
2021/10/15 18:57:45;;;;;;;18.10;8.80;;;13.40;78.40;;;;;;10104019;28;20120;-64
2021/10/15 19:02:36;;;;;;;22.95;9.10;;;13.30;78.60;;;;;;10109268;28;20021;-56
2021/10/15 19:07:27;;;;;;;19.65;8.55;;;13.20;78.80;;;;;;10110200;28;20028;-57
2021/10/15 19:12:17;;;;;;;27.13;12.18;;;13.20;79.00;;;;;;10105757;28;20020;-59
2021/10/15 19:17:08;;;;;;;16.75;9.55;;;13.10;79.40;;;;;;10120236;28;20055;-53
2021/10/15 19:21:59;;;;;;;19.95;9.50;;;13.10;79.70;;;;;;10113236;28;20033;-60
2021/10/15 19:26:51;;;;;;;15.85;10.27;;;13.10;80.00;;;;;;10122701;28;20032;-58
2021/10/15 19:31:41;;;;;;;18.02;8.80;;;13.00;80.20;;;;;;10119972;28;20475;-53
2021/10/15 19:36:32;;;;;;;20.27;9.07;;;12.80;80.50;;;;;;10125545;28;20056;-55
2021/10/15 19:41:23;;;;;;;14.32;8.45;;;12.80;80.80;;;;;;10111817;28;20570;-51
2021/10/15 19:46:14;;;;;;;15.80;7.72;;;12.70;81.20;;;;;;10104892;28;20065;-56
2021/10/15 19:51:08;;;;;;;14.23;7.45;;;12.70;81.60;;;;;;10114253;28;20041;-60
2021/10/15 19:55:58;;;;;;;12.45;6.78;;;12.70;81.80;;;;;;10093552;28;20534;-57
2021/10/15 20:00:49;;;;;;;16.60;7.35;;;12.90;82.00;;;;;;10114682;28;20028;-56
2021/10/15 20:05:40;;;;;;;10.82;6.88;;;13.00;82.10;;;;;;10116133;28;20025;-60
2021/10/15 20:10:31;;;;;;;15.25;7.85;;;13.00;82.10;;;;;;10122578;28;20033;-56
2021/10/15 20:15:22;;;;;;;13.80;7.25;;;13.00;82.30;;;;;;10124431;28;20036;-53
2021/10/15 20:20:13;;;;;;;15.43;7.32;;;13.10;82.50;;;;;;10119825;28;20103;-54
2021/10/15 20:25:04;;;;;;;19.70;8.07;;;13.00;82.60;;;;;;10107488;28;20036;-54
2021/10/15 20:29:55;;;;;;;14.48;7.55;;;13.00;82.80;;;;;;10104289;28;20169;-54
2021/10/15 20:34:46;;;;;;;17.38;7.82;;;13.00;83.00;;;;;;10105083;28;20542;-55
2021/10/15 20:39:36;;;;;;;16.58;8.55;;;13.00;83.10;;;;;;10120954;28;20486;-57
2021/10/15 20:44:29;;;;;;;14.82;7.55;;;13.00;83.20;;;;;;10123328;28;20033;-57
2021/10/15 20:49:20;;;;;;;14.48;8.70;;;12.90;83.40;;;;;;10120834;28;20489;-58
2021/10/15 20:54:10;;;;;;;15.05;8.85;;;12.80;83.80;;;;;;10106738;28;20025;-59
2021/10/15 20:59:01;;;;;;;15.38;7.95;;;12.70;83.70;;;;;;10119952;28;20039;-62
2021/10/15 21:03:51;;;;;;;15.60;9.25;;;12.70;83.80;;;;;;10121428;28;20147;-61
2021/10/15 21:08:42;;;;;;;16.08;9.73;;;12.60;84.10;;;;;;10121109;28;20093;-64
2021/10/15 21:13:35;;;;;;;21.85;10.48;;;12.50;84.30;;;;;;10090725;28;20031;-58
2021/10/15 21:18:26;;;;;;;25.88;12.48;;;12.40;84.50;;;;;;10108689;28;20031;-56
2021/10/15 21:23:17;;;;;;;23.35;11.23;;;12.40;84.70;;;;;;10109473;28;20020;-61
2021/10/15 21:28:07;;;;;;;18.17;9.75;;;12.30;84.90;;;;;;10125910;28;20047;-56
2021/10/15 21:32:58;;;;;;;22.08;11.07;;;12.30;85.00;;;;;;10121651;28;20048;-53
2021/10/15 21:37:49;;;;;;;15.85;9.10;;;12.20;85.20;;;;;;10110954;28;20029;-59
2021/10/15 21:42:40;;;;;;;17.30;9.40;;;12.20;85.40;;;;;;10106031;28;20028;-62
2021/10/15 21:47:30;;;;;;;17.17;10.13;;;12.20;85.50;;;;;;10112326;28;20059;-55
2021/10/15 21:52:21;;;;;;;16.33;10.00;;;12.10;85.70;;;;;;10113610;28;20052;-55
2021/10/15 21:57:12;;;;;;;12.32;7.07;;;12.10;86.10;;;;;;10109401;28;20094;-56
2021/10/15 22:02:02;;;;;;;12.65;7.07;;;12.10;86.10;;;;;;10109285;28;20040;-56
2021/10/15 22:06:55;;;;;;;15.32;7.25;;;12.00;86.30;;;;;;10122880;28;20017;-54
2021/10/15 22:11:46;;;;;;;12.98;7.50;;;11.90;86.60;;;;;;10111195;28;20035;-59
2021/10/15 22:16:38;;;;;;;13.13;6.68;;;11.80;86.80;;;;;;10117880;28;20518;-54
2021/10/15 22:21:28;;;;;;;13.00;7.38;;;11.90;86.90;;;;;;10096053;28;20029;-57
2021/10/15 22:26:19;;;;;;;14.38;7.57;;;11.90;86.70;;;;;;10105178;28;20125;-55
2021/10/15 22:31:10;;;;;;;13.20;6.70;;;11.90;86.80;;;;;;10117422;28;20056;-57
2021/10/15 22:36:01;;;;;;;12.93;6.95;;;11.90;86.90;;;;;;10125819;28;20048;-53
2021/10/15 22:40:51;;;;;;;13.65;6.82;;;11.90;87.00;;;;;;10118589;28;20025;-53
2021/10/15 22:45:42;;;;;;;11.85;6.35;;;11.90;87.00;;;;;;10127393;28;20107;-53
2021/10/15 22:50:34;;;;;;;12.45;7.05;;;11.90;86.80;;;;;;10121468;28;20032;-57
2021/10/15 22:55:24;;;;;;;12.75;5.75;;;11.90;87.00;;;;;;10119351;28;20102;-54
2021/10/15 23:00:18;;;;;;;9.60;5.75;;;12.00;87.20;;;;;;10103847;28;20094;-55
2021/10/15 23:05:10;;;;;;;10.40;6.15;;;12.10;87.10;;;;;;10106022;28;20060;-51
2021/10/15 23:10:01;;;;;;;13.05;6.70;;;12.20;87.20;;;;;;10123514;28;20025;-60
2021/10/15 23:14:52;;;;;;;8.88;6.47;;;12.20;87.30;;;;;;10120996;28;20529;-54
2021/10/15 23:19:43;;;;;;;10.73;7.18;;;12.10;87.50;;;;;;10119949;28;20047;-56
2021/10/15 23:24:34;;;;;;;11.57;6.15;;;12.10;87.70;;;;;;10107254;28;20017;-57
2021/10/15 23:29:24;;;;;;;12.70;7.57;;;12.20;87.40;;;;;;10121748;28;20032;-59
2021/10/15 23:34:16;;;;;;;13.80;7.55;;;12.10;87.50;;;;;;10121014;28;20176;-57
2021/10/15 23:39:07;;;;;;;12.25;7.30;;;11.90;87.40;;;;;;10114458;28;20055;-53
2021/10/15 23:43:58;;;;;;;11.63;6.90;;;11.70;88.20;;;;;;10116928;28;20054;-61
2021/10/15 23:48:49;;;;;;;14.15;7.53;;;11.60;88.30;;;;;;10114532;28;20429;-56
2021/10/15 23:53:39;;;;;;;13.65;6.97;;;11.50;88.10;;;;;;10103922;28;20485;-56
2021/10/15 23:58:30;;;;;;;12.20;6.50;;;11.30;88.40;;;;;;10116423;28;20044;-53
